Time;durP1;ratioP1;P1;durP2;ratioP2;P2;SDS_P1;SDS_P2;PMS_P1;PMS_P2;Temp;Humidity;BMP_temperature;BMP_pressure;BME280_temperature;BME280_humidity;BME280_pressure;Samples;Min_cycle;Max_cycle;Signal;HPM_P1;HPM_P2
2023/05/02 00:01:20;;;;;;;4.55;2.92;;;10.90;99.90;;;;;;5074594;28;20032;-63
2023/05/02 00:03:46;;;;;;;5.10;3.28;;;10.80;99.90;;;;;;5074551;28;20029;-64
2023/05/02 00:06:12;;;;;;;5.10;2.67;;;10.80;99.90;;;;;;5074547;28;20029;-63
2023/05/02 00:08:37;;;;;;;5.65;2.55;;;10.70;99.90;;;;;;5074470;28;20040;-64
2023/05/02 00:11:04;;;;;;;8.45;2.40;;;10.60;99.90;;;;;;5074489;28;20464;-64
2023/05/02 00:13:29;;;;;;;4.95;2.28;;;10.60;99.90;;;;;;5074419;28;20041;-64
2023/05/02 00:15:55;;;;;;;6.25;2.63;;;10.60;99.90;;;;;;5072941;28;20415;-63
2023/05/02 00:18:20;;;;;;;4.90;2.80;;;12.40;99.90;;;;;;5074203;28;20123;-63
2023/05/02 00:20:46;;;;;;;9.80;2.72;;;10.50;99.90;;;;;;5074251;28;20037;-64
2023/05/02 00:23:12;;;;;;;5.47;2.17;;;10.50;99.90;;;;;;5074111;28;20033;-63
2023/05/02 00:25:45;;;;;;;5.72;2.05;;;10.50;99.90;;;;;;5074127;28;20116;-63
2023/05/02 00:28:12;;;;;;;3.20;1.65;;;10.40;99.90;;;;;;5074064;28;20044;-64
2023/05/02 00:30:42;;;;;;;4.53;1.70;;;10.40;99.90;;;;;;5072390;28;20055;-66
2023/05/02 00:33:08;;;;;;;1.83;1.10;;;11.60;99.90;;;;;;5073998;28;20120;-64
2023/05/02 00:35:34;;;;;;;3.45;1.17;;;10.40;99.90;;;;;;5073992;28;20119;-64
2023/05/02 00:37:59;;;;;;;2.80;1.23;;;10.30;99.90;;;;;;5073777;28;20040;-64
2023/05/02 00:40:25;;;;;;;5.30;0.98;;;11.20;99.90;;;;;;5073860;28;20086;-65
2023/05/02 00:42:51;;;;;;;2.22;1.27;;;11.00;99.90;;;;;;5073469;28;20124;-63
2023/05/02 00:45:17;;;;;;;2.65;1.05;;;10.10;99.90;;;;;;5073713;28;20089;-63
2023/05/02 00:47:43;;;;;;;5.53;1.30;;;10.30;99.90;;;;;;5073390;28;20044;-64
2023/05/02 00:50:08;;;;;;;1.35;1.10;;;10.20;99.90;;;;;;5073309;28;20029;-64
2023/05/02 00:52:34;;;;;;;2.45;1.45;;;10.20;99.90;;;;;;5073638;28;20036;-63
2023/05/02 00:55:02;;;;;;;1.73;0.98;;;10.20;99.90;;;;;;5073359;28;20033;-64
2023/05/02 00:57:27;;;;;;;2.08;1.20;;;10.10;99.90;;;;;;5073514;28;20408;-64
2023/05/02 00:59:53;;;;;;;2.25;0.82;;;10.10;99.90;;;;;;5072017;28;20048;-63
2023/05/02 01:02:36;;;;;;;2.70;1.33;;;10.10;99.90;;;;;;5073409;28;20035;-64
2023/05/02 01:05:14;;;;;;;1.50;1.10;;;10.10;99.90;;;;;;5073428;28;20036;-64
2023/05/02 01:07:58;;;;;;;2.13;1.10;;;10.10;99.90;;;;;;5073429;28;20377;-63
2023/05/02 01:11:05;;;;;;;1.48;0.98;;;10.10;99.90;;;;;;5073466;28;20040;-64
2023/05/02 01:13:33;;;;;;;4.63;1.55;;;10.10;99.90;;;;;;5073376;28;20036;-64
2023/05/02 01:16:01;;;;;;;2.42;1.15;;;10.10;99.90;;;;;;5073047;28;20055;-63
2023/05/02 01:18:31;;;;;;;1.83;1.10;;;10.00;99.90;;;;;;5072947;28;20396;-64
2023/05/02 01:21:00;;;;;;;2.38;1.27;;;10.00;99.90;;;;;;5072932;28;20044;-64
2023/05/02 01:23:46;;;;;;;4.10;1.42;;;10.00;99.90;;;;;;5073229;28;20428;-64
2023/05/02 01:26:23;;;;;;;2.75;1.20;;;10.00;99.90;;;;;;5073189;28;20045;-64
2023/05/02 01:28:57;;;;;;;1.50;0.90;;;10.00;99.90;;;;;;5073147;28;20044;-64
2023/05/02 01:31:26;;;;;;;2.70;1.67;;;10.00;99.90;;;;;;5073123;28;20424;-64
2023/05/02 01:33:54;;;;;;;2.78;1.27;;;10.00;99.90;;;;;;5073232;28;20050;-64
2023/05/02 01:36:22;;;;;;;2.17;1.23;;;9.90;99.90;;;;;;5073084;28;20036;-63
2023/05/02 01:38:49;;;;;;;4.47;1.20;;;9.90;99.90;;;;;;5072770;28;20071;-64
2023/05/02 01:41:16;;;;;;;2.55;1.05;;;9.90;99.90;;;;;;5072529;28;20039;-64
2023/05/02 01:43:42;;;;;;;3.15;1.27;;;9.90;99.90;;;;;;5073019;28;20063;-64
2023/05/02 01:46:10;;;;;;;1.30;1.02;;;9.90;99.90;;;;;;5073006;28;20043;-64
2023/05/02 01:48:36;;;;;;;2.58;1.27;;;9.30;99.90;;;;;;5072944;28;20099;-64
2023/05/02 01:51:04;;;;;;;4.38;1.35;;;9.80;99.90;;;;;;5072901;28;20072;-63
2023/05/02 01:53:32;;;;;;;2.30;1.20;;;9.90;99.90;;;;;;5072882;28;20044;-64
2023/05/02 01:55:59;;;;;;;1.70;0.95;;;9.80;99.90;;;;;;5072841;28;20033;-64
2023/05/02 01:58:28;;;;;;;6.10;1.13;;;9.80;99.90;;;;;;5072812;28;20422;-64
2023/05/02 02:00:58;;;;;;;1.83;0.95;;;9.80;99.90;;;;;;5072576;28;20115;-63
2023/05/02 02:03:24;;;;;;;3.25;1.10;;;9.80;99.90;;;;;;5072813;28;20041;-64
2023/05/02 02:05:51;;;;;;;3.20;1.20;;;9.80;99.90;;;;;;5072787;28;20041;-64
2023/05/02 02:08:17;;;;;;;3.20;1.05;;;9.80;99.90;;;;;;5072748;28;20037;-64
2023/05/02 02:10:48;;;;;;;3.03;1.40;;;9.90;99.90;;;;;;5072782;28;20090;-64
2023/05/02 02:13:24;;;;;;;3.42;1.30;;;9.90;99.90;;;;;;5072396;28;20044;-64
2023/05/02 02:15:56;;;;;;;5.68;1.45;;;9.80;99.90;;;;;;5072329;28;20137;-64
2023/05/02 02:18:26;;;;;;;4.20;1.58;;;9.70;99.90;;;;;;5072370;28;20162;-64
2023/05/02 02:20:54;;;;;;;4.38;1.25;;;9.60;99.90;;;;;;5072692;28;20051;-63
2023/05/02 02:23:23;;;;;;;6.55;1.25;;;9.50;99.90;;;;;;5072295;28;20059;-63
2023/05/02 02:25:51;;;;;;;5.25;1.60;;;9.40;98.90;;;;;;5072379;28;20119;-63
2023/05/02 02:28:16;;;;;;;3.00;1.48;;;9.30;99.60;;;;;;5071006;28;20467;-64
2023/05/02 02:30:42;;;;;;;5.05;1.20;;;9.30;99.50;;;;;;5072216;28;20189;-64
2023/05/02 02:33:08;;;;;;;0.90;0.70;;;9.20;98.70;;;;;;5072506;28;20094;-64
2023/05/02 02:35:41;;;;;;;4.75;1.20;;;9.10;99.40;;;;;;5072165;28;20041;-64
2023/05/02 02:38:12;;;;;;;4.88;1.27;;;9.10;98.30;;;;;;5072403;28;20455;-63
2023/05/02 02:40:50;;;;;;;5.88;1.23;;;9.40;97.30;;;;;;5072466;28;20033;-64
2023/05/02 02:43:52;;;;;;;5.38;1.20;;;9.00;99.10;;;;;;5072385;28;20041;-64
2023/05/02 02:46:33;;;;;;;4.82;1.52;;;9.00;99.90;;;;;;5072423;28;20388;-63
2023/05/02 02:49:25;;;;;;;5.15;1.38;;;8.90;99.90;;;;;;5072363;28;20041;-64
2023/05/02 02:52:24;;;;;;;5.18;1.65;;;8.90;99.30;;;;;;5070830;28;20412;-64
2023/05/02 02:55:05;;;;;;;5.63;1.45;;;8.90;99.60;;;;;;5057213;28;20123;-63
2023/05/02 02:57:50;;;;;;;5.13;1.30;;;8.90;99.80;;;;;;5075850;28;20395;-64
2023/05/02 03:00:20;;;;;;;3.38;1.23;;;8.80;99.90;;;;;;5075779;28;20128;-64
2023/05/02 03:02:47;;;;;;;7.57;1.50;;;8.80;99.90;;;;;;5074437;28;20054;-63
2023/05/02 03:05:14;;;;;;;5.00;1.50;;;8.80;94.90;;;;;;5075684;28;20036;-64
2023/05/02 03:07:40;;;;;;;3.55;1.55;;;8.70;92.10;;;;;;5075735;28;20107;-64
2023/05/02 03:10:07;;;;;;;4.90;1.60;;;8.70;69.00;;;;;;5074051;28;20036;-64
2023/05/02 03:12:32;;;;;;;7.10;1.20;;;8.70;39.10;;;;;;5074076;28;20154;-63
2023/05/02 03:15:23;;;;;;;4.18;1.10;;;9.10;25.80;;;;;;5075318;28;20111;-63
2023/05/02 03:17:48;;;;;;;3.83;1.20;;;8.70;1.00;;;;;;5075431;28;20382;-64
2023/05/02 03:20:14;;;;;;;3.42;1.25;;;8.60;1.00;;;;;;5073915;28;20097;-64
2023/05/02 03:22:40;;;;;;;4.60;1.73;;;9.20;1.00;;;;;;5075442;28;20116;-64
2023/05/02 03:25:06;;;;;;;3.92;1.52;;;8.60;1.00;;;;;;5074121;28;20047;-64
2023/05/02 03:27:31;;;;;;;10.60;1.50;;;8.50;1.00;;;;;;5091002;28;20063;-66
2023/05/02 03:29:57;;;;;;;3.90;1.83;;;8.50;1.00;;;;;;5073870;28;20496;-64
2023/05/02 03:32:22;;;;;;;7.15;1.50;;;8.50;1.00;;;;;;5075170;28;20044;-64
2023/05/02 03:34:48;;;;;;;4.10;1.25;;;8.50;1.00;;;;;;5075237;28;20477;-64
2023/05/02 03:37:14;;;;;;;3.00;1.02;;;8.50;99.90;;;;;;5075114;28;20039;-64
2023/05/02 03:39:39;;;;;;;9.68;1.60;;;8.40;99.90;;;;;;5075024;28;20041;-64
2023/05/02 03:42:05;;;;;;;4.43;1.30;;;8.40;99.90;;;;;;5075068;28;20044;-64
2023/05/02 03:44:30;;;;;;;7.20;1.40;;;8.30;99.90;;;;;;5074762;28;20441;-64
2023/05/02 03:46:56;;;;;;;6.07;1.33;;;8.30;99.90;;;;;;5073416;28;20044;-64
2023/05/02 03:49:21;;;;;;;4.85;1.33;;;8.30;99.90;;;;;;5074945;28;20388;-64
2023/05/02 03:51:47;;;;;;;3.90;1.20;;;8.30;99.90;;;;;;5074897;28;20059;-67
2023/05/02 03:54:13;;;;;;;4.15;1.25;;;8.20;99.90;;;;;;5074787;28;20048;-64
2023/05/02 03:56:38;;;;;;;2.58;0.98;;;8.20;99.90;;;;;;5090434;28;20051;-64
2023/05/02 03:59:04;;;;;;;9.07;1.67;;;8.10;99.90;;;;;;5074640;28;20037;-64
2023/05/02 04:01:30;;;;;;;2.75;1.30;;;8.10;99.90;;;;;;5074713;28;20040;-64
2023/05/02 04:03:56;;;;;;;9.15;1.50;;;6.30;99.90;;;;;;5073731;28;20055;-64
2023/05/02 04:06:21;;;;;;;7.07;1.45;;;8.10;99.90;;;;;;5074281;28;20120;-64
2023/05/02 04:08:47;;;;;;;4.78;1.05;;;8.10;99.90;;;;;;5074213;28;20406;-64
2023/05/02 04:11:13;;;;;;;8.02;1.15;;;8.00;99.90;;;;;;5074152;28;20044;-64
2023/05/02 04:13:39;;;;;;;3.35;1.15;;;8.00;99.90;;;;;;5074433;28;20090;-64
2023/05/02 04:16:05;;;;;;;4.97;1.00;;;7.90;1.00;;;;;;5073921;28;20485;-64
2023/05/02 04:18:30;;;;;;;5.55;0.98;;;7.90;1.00;;;;;;5089592;28;20424;-64
2023/05/02 04:20:56;;;;;;;6.35;0.70;;;7.90;99.90;;;;;;5073969;28;20036;-64
2023/05/02 04:23:22;;;;;;;3.80;0.70;;;7.90;99.90;;;;;;5074078;28;20076;-64
2023/05/02 04:25:55;;;;;;;3.17;1.13;;;7.90;99.90;;;;;;5074103;28;20459;-64
2023/05/02 04:28:21;;;;;;;4.15;0.80;;;7.90;99.90;;;;;;5074060;28;20049;-65
2023/05/02 04:30:50;;;;;;;6.68;1.20;;;7.80;99.90;;;;;;5073734;28;20044;-64
2023/05/02 04:33:17;;;;;;;2.10;0.90;;;7.90;99.90;;;;;;5073874;28;20048;-64
2023/05/02 04:35:43;;;;;;;2.13;1.02;;;7.90;99.90;;;;;;5073515;28;20041;-64
2023/05/02 04:38:09;;;;;;;2.58;1.08;;;7.90;1.00;;;;;;5073880;28;20047;-65
2023/05/02 04:40:35;;;;;;;1.15;0.52;;;7.90;1.00;;;;;;5073701;28;20119;-65
2023/05/02 04:43:01;;;;;;;2.28;0.80;;;7.90;99.90;;;;;;5073903;28;20032;-65
2023/05/02 04:45:27;;;;;;;5.05;1.20;;;7.90;99.90;;;;;;5089493;28;20373;-65
2023/05/02 04:47:52;;;;;;;1.95;0.82;;;7.90;1.00;;;;;;5073766;28;20043;-65
2023/05/02 04:50:18;;;;;;;3.55;0.73;;;7.90;99.90;;;;;;5073706;28;20181;-64
2023/05/02 04:52:44;;;;;;;2.53;0.70;;;8.00;99.90;;;;;;5073715;28;20033;-64
2023/05/02 04:55:09;;;;;;;4.07;0.73;;;8.00;1.00;;;;;;5073674;28;20044;-64
2023/05/02 04:57:35;;;;;;;2.92;1.05;;;7.90;99.90;;;;;;5073611;28;20058;-64
2023/05/02 05:00:00;;;;;;;2.88;1.02;;;7.90;1.00;;;;;;5073467;28;20083;-65
2023/05/02 05:02:26;;;;;;;0.80;0.60;;;8.70;99.90;;;;;;5072255;28;20484;-65
2023/05/02 05:04:52;;;;;;;1.23;0.77;;;7.80;91.40;;;;;;5073578;28;20051;-64
2023/05/02 05:07:17;;;;;;;4.03;0.85;;;7.90;1.00;;;;;;5072183;28;20052;-65
2023/05/02 05:09:43;;;;;;;1.95;0.40;;;7.90;99.90;;;;;;5073447;28;20072;-64
2023/05/02 05:12:09;;;;;;;2.72;0.90;;;7.90;99.90;;;;;;5073052;28;20073;-65
2023/05/02 05:14:34;;;;;;;2.85;0.80;;;7.90;1.00;;;;;;5073387;28;20039;-65
2023/05/02 05:17:00;;;;;;;1.45;0.75;;;7.90;99.90;;;;;;5071094;28;20170;-65
2023/05/02 05:19:26;;;;;;;2.83;0.80;;;7.90;99.90;;;;;;5071755;28;20488;-65
2023/05/02 05:21:52;;;;;;;4.88;0.98;;;7.80;1.00;;;;;;5073283;28;20044;-65
2023/05/02 05:24:17;;;;;;;0.82;0.50;;;7.90;52.90;;;;;;5073175;28;20033;-65
2023/05/02 05:26:43;;;;;;;1.27;0.70;;;7.90;1.00;;;;;;5072969;28;20500;-64
2023/05/02 05:29:09;;;;;;;2.20;0.85;;;7.90;1.00;;;;;;5071899;28;20064;-65
2023/05/02 05:31:35;;;;;;;3.35;0.90;;;7.90;1.00;;;;;;5072228;28;20044;-64
2023/05/02 05:34:01;;;;;;;5.55;1.15;;;7.90;1.00;;;;;;5073115;28;20101;-64
2023/05/02 05:36:26;;;;;;;4.03;0.75;;;7.90;1.00;;;;;;5071910;28;20049;-65
2023/05/02 05:38:52;;;;;;;2.15;0.75;;;7.90;1.00;;;;;;5071878;28;20045;-65
2023/05/02 05:41:18;;;;;;;2.53;1.05;;;7.90;1.00;;;;;;5073071;28;20463;-65
2023/05/02 05:43:43;;;;;;;6.85;0.90;;;7.90;1.00;;;;;;5073093;28;20079;-64
2023/05/02 05:46:09;;;;;;;3.83;0.93;;;7.90;1.00;;;;;;5071454;28;20082;-64
2023/05/02 05:48:34;;;;;;;4.20;1.10;;;7.90;1.00;;;;;;5072983;28;20036;-64
2023/05/02 05:51:04;;;;;;;4.10;0.88;;;7.90;1.00;;;;;;5072998;28;20400;-66
2023/05/02 05:53:30;;;;;;;5.15;1.23;;;8.00;1.00;;;;;;5072743;28;20119;-64
2023/05/02 05:55:56;;;;;;;4.57;0.77;;;8.00;1.00;;;;;;5072958;28;20559;-64
2023/05/02 05:58:22;;;;;;;3.42;0.93;;;8.00;1.00;;;;;;5072840;28;20396;-64
2023/05/02 06:00:48;;;;;;;4.05;0.82;;;9.30;1.00;;;;;;5071366;28;20049;-64
2023/05/02 06:03:13;;;;;;;3.53;1.00;;;8.00;1.00;;;;;;5071641;28;20076;-64
2023/05/02 06:05:39;;;;;;;3.35;0.82;;;8.00;99.90;;;;;;5072899;28;20090;-64
2023/05/02 06:08:05;;;;;;;3.22;1.10;;;8.00;99.90;;;;;;5072789;28;20041;-65
2023/05/02 06:10:31;;;;;;;5.47;1.10;;;8.60;1.00;;;;;;5072799;28;20041;-64
2023/05/02 06:12:57;;;;;;;2.17;0.90;;;8.10;99.90;;;;;;5072481;28;20041;-64
2023/05/02 06:15:22;;;;;;;5.65;1.10;;;8.10;99.90;;;;;;5072597;28;20036;-64
2023/05/02 06:17:50;;;;;;;1.95;0.80;;;8.10;99.90;;;;;;5072634;28;20055;-64
2023/05/02 06:20:16;;;;;;;5.93;0.90;;;8.10;99.90;;;;;;5071189;28;20045;-64
2023/05/02 06:22:42;;;;;;;1.98;0.82;;;8.10;99.90;;;;;;5072729;28;20036;-64
2023/05/02 06:25:08;;;;;;;4.20;1.13;;;8.10;99.90;;;;;;5072634;28;20530;-64
2023/05/02 06:27:34;;;;;;;6.45;1.20;;;8.10;99.90;;;;;;5073442;28;20051;-64
2023/05/02 06:29:59;;;;;;;2.15;1.45;;;8.10;99.90;;;;;;5076287;28;20033;-65
2023/05/02 06:32:30;;;;;;;3.03;0.93;;;8.70;99.90;;;;;;5076285;28;20505;-65
2023/05/02 06:34:55;;;;;;;1.95;1.10;;;8.10;99.90;;;;;;5074729;28;20055;-64
2023/05/02 06:37:21;;;;;;;3.10;0.93;;;8.20;99.90;;;;;;5075886;28;20395;-65
2023/05/02 06:39:46;;;;;;;5.85;1.70;;;8.20;99.90;;;;;;5075830;28;20052;-64
2023/05/02 06:42:12;;;;;;;8.30;1.40;;;8.20;99.90;;;;;;5076175;28;20037;-65
2023/05/02 06:44:38;;;;;;;3.55;1.20;;;8.30;99.90;;;;;;5076027;28;20106;-64
2023/05/02 06:47:05;;;;;;;6.32;1.30;;;8.30;99.90;;;;;;5075953;28;20032;-65
2023/05/02 06:49:31;;;;;;;5.70;1.00;;;8.30;99.90;;;;;;5075768;28;20040;-65
2023/05/02 06:51:56;;;;;;;2.42;1.00;;;8.30;53.10;;;;;;5075874;28;20496;-65
2023/05/02 06:54:22;;;;;;;1.50;1.00;;;8.40;62.10;;;;;;5075906;28;20048;-65
2023/05/02 06:56:47;;;;;;;1.80;0.65;;;8.50;35.40;;;;;;5074518;28;20040;-65
2023/05/02 06:59:15;;;;;;;2.35;1.10;;;8.50;1.00;;;;;;5075334;28;20514;-65
2023/05/02 07:01:42;;;;;;;1.80;0.95;;;8.60;1.00;;;;;;5075705;28;20040;-65
2023/05/02 07:04:07;;;;;;;4.70;1.20;;;8.60;1.00;;;;;;5074371;28;20044;-69
2023/05/02 07:06:33;;;;;;;2.80;1.25;;;8.60;1.00;;;;;;5075609;28;20036;-66
2023/05/02 07:08:59;;;;;;;7.72;1.00;;;8.70;1.00;;;;;;5075294;28;20051;-64
2023/05/02 07:11:25;;;;;;;2.85;1.10;;;8.70;1.00;;;;;;5075516;28;20503;-67
2023/05/02 07:13:50;;;;;;;4.15;0.88;;;8.70;1.00;;;;;;5073993;28;20044;-64
2023/05/02 07:16:16;;;;;;;5.78;1.55;;;8.80;1.00;;;;;;5074888;28;20529;-64
2023/05/02 07:18:42;;;;;;;2.88;1.27;;;8.70;99.90;;;;;;5073841;28;20105;-65
2023/05/02 07:21:07;;;;;;;3.92;1.10;;;9.70;99.90;;;;;;5075283;28;20105;-64
2023/05/02 07:23:33;;;;;;;3.97;1.27;;;8.80;99.90;;;;;;5075007;28;20044;-64
2023/05/02 07:25:59;;;;;;;2.55;1.10;;;8.90;99.90;;;;;;5075081;28;20040;-64
2023/05/02 07:28:24;;;;;;;4.88;1.52;;;8.90;99.90;;;;;;5075317;28;20392;-65
2023/05/02 07:30:50;;;;;;;3.83;1.15;;;8.90;99.90;;;;;;5075146;28;20036;-65
2023/05/02 07:33:16;;;;;;;1.70;0.90;;;9.00;99.90;;;;;;5075226;28;20052;-63
2023/05/02 07:35:41;;;;;;;4.18;1.30;;;9.10;99.90;;;;;;5074832;28;20090;-64
2023/05/02 07:38:07;;;;;;;3.05;1.52;;;9.10;99.90;;;;;;5074978;28;20150;-66
2023/05/02 07:40:33;;;;;;;2.55;1.42;;;9.20;99.90;;;;;;5074136;28;20079;-64
2023/05/02 07:43:00;;;;;;;3.22;1.20;;;9.20;99.90;;;;;;5074022;28;20043;-64
2023/05/02 07:45:26;;;;;;;1.40;0.93;;;9.30;99.90;;;;;;5073422;28;20089;-64
2023/05/02 07:47:51;;;;;;;7.18;1.00;;;9.30;99.90;;;;;;5074946;28;20388;-64
2023/05/02 07:50:17;;;;;;;1.50;0.90;;;9.50;99.90;;;;;;5074913;28;20502;-64
2023/05/02 07:52:42;;;;;;;3.80;0.80;;;10.10;99.90;;;;;;5073295;28;20040;-64
2023/05/02 07:55:08;;;;;;;3.72;0.90;;;9.70;99.90;;;;;;5074715;28;20040;-64
2023/05/02 07:57:34;;;;;;;2.75;1.00;;;9.80;99.90;;;;;;5073272;28;20043;-64
2023/05/02 08:00:00;;;;;;;1.75;1.13;;;9.80;99.90;;;;;;5074557;28;20036;-64
2023/05/02 08:02:26;;;;;;;8.52;1.58;;;9.80;99.90;;;;;;5074572;28;20444;-64
2023/05/02 08:04:51;;;;;;;5.57;1.00;;;9.90;99.90;;;;;;5056353;28;20049;-64
2023/05/02 08:07:17;;;;;;;4.10;1.52;;;9.90;99.90;;;;;;5074465;28;20040;-64
2023/05/02 08:09:43;;;;;;;2.95;0.90;;;9.90;99.90;;;;;;5074066;28;20052;-64
2023/05/02 08:12:08;;;;;;;3.45;1.00;;;9.80;99.90;;;;;;5073088;28;20123;-64
2023/05/02 08:14:34;;;;;;;2.42;0.90;;;9.70;99.90;;;;;;5074378;28;20049;-64
2023/05/02 08:17:00;;;;;;;1.63;0.95;;;10.70;99.90;;;;;;5073897;28;20091;-64
2023/05/02 08:19:26;;;;;;;2.63;1.10;;;9.90;99.90;;;;;;5074186;28;20036;-66
2023/05/02 08:21:53;;;;;;;4.07;1.02;;;9.90;99.90;;;;;;5074185;28;20064;-64
2023/05/02 08:24:19;;;;;;;1.15;0.70;;;10.00;99.90;;;;;;5072634;28;20032;-64
2023/05/02 08:26:44;;;;;;;2.97;1.10;;;9.90;99.90;;;;;;5074087;28;20472;-64
2023/05/02 08:29:10;;;;;;;3.28;1.50;;;10.00;99.90;;;;;;5073765;28;20432;-64
2023/05/02 08:31:36;;;;;;;2.05;1.10;;;9.90;99.90;;;;;;5073624;28;20052;-64
2023/05/02 08:34:02;;;;;;;4.60;1.02;;;9.80;99.90;;;;;;5073974;28;20434;-65
2023/05/02 08:36:28;;;;;;;4.35;1.30;;;9.70;99.90;;;;;;5073981;28;20119;-67
2023/05/02 08:38:53;;;;;;;1.75;0.85;;;9.70;99.90;;;;;;5072315;28;20503;-64
2023/05/02 08:41:19;;;;;;;5.32;1.35;;;9.80;99.90;;;;;;5073492;28;20037;-65
2023/05/02 08:43:45;;;;;;;2.63;1.05;;;9.80;99.90;;;;;;5073726;28;20047;-65
2023/05/02 08:46:13;;;;;;;2.05;1.00;;;9.90;99.90;;;;;;5072495;28;20166;-64
2023/05/02 08:48:40;;;;;;;5.20;1.08;;;10.00;99.90;;;;;;5073727;28;20602;-64
2023/05/02 08:51:14;;;;;;;3.83;1.10;;;10.20;99.90;;;;;;5073547;28;20040;-64
2023/05/02 08:53:40;;;;;;;1.50;1.25;;;10.30;99.90;;;;;;5073634;28;20041;-64
2023/05/02 08:56:07;;;;;;;9.65;1.83;;;10.40;99.90;;;;;;5073286;28;20048;-64
2023/05/02 08:58:37;;;;;;;3.42;1.10;;;10.40;99.90;;;;;;5073570;28;20048;-64
2023/05/02 09:01:14;;;;;;;1.67;0.73;;;10.50;99.90;;;;;;5071920;28;20197;-66
2023/05/02 09:03:41;;;;;;;2.50;1.00;;;10.50;99.90;;;;;;5073263;28;20036;-65
2023/05/02 09:06:11;;;;;;;1.88;0.57;;;10.50;99.90;;;;;;5073410;28;20028;-65
2023/05/02 09:08:38;;;;;;;3.58;0.60;;;11.30;99.90;;;;;;5073494;28;20076;-67
2023/05/02 09:11:04;;;;;;;0.63;0.50;;;11.10;99.90;;;;;;5073361;28;20051;-64
2023/05/02 09:13:37;;;;;;;1.45;0.50;;;10.50;99.90;;;;;;5072126;28;20044;-64
2023/05/02 09:16:24;;;;;;;1.25;0.50;;;10.50;99.90;;;;;;5073144;28;20060;-64
2023/05/02 09:18:58;;;;;;;2.55;0.70;;;10.40;99.90;;;;;;5073212;28;20036;-64
2023/05/02 09:21:33;;;;;;;0.57;0.43;;;10.40;99.90;;;;;;5073255;28;20060;-64
2023/05/02 09:23:59;;;;;;;1.15;0.57;;;10.40;99.90;;;;;;5073379;28;20047;-64
2023/05/02 09:26:31;;;;;;;1.08;0.60;;;11.20;99.90;;;;;;5073260;28;20062;-64
2023/05/02 09:28:58;;;;;;;0.55;0.45;;;10.40;99.90;;;;;;5073177;28;20082;-65
2023/05/02 09:31:25;;;;;;;2.47;0.70;;;10.40;99.90;;;;;;5073114;28;20063;-64
2023/05/02 09:33:52;;;;;;;0.98;0.50;;;11.90;99.90;;;;;;5072999;28;20349;-64
2023/05/02 09:36:19;;;;;;;0.40;0.40;;;10.80;99.90;;;;;;5071475;28;20395;-64
2023/05/02 09:38:46;;;;;;;0.82;0.50;;;10.90;99.90;;;;;;5072685;28;20128;-64
2023/05/02 09:41:13;;;;;;;4.68;0.90;;;11.60;99.90;;;;;;5054681;28;20045;-64
2023/05/02 09:43:39;;;;;;;0.68;0.47;;;11.00;99.90;;;;;;5073025;28;20518;-63
2023/05/02 09:46:10;;;;;;;0.93;0.45;;;11.00;99.90;;;;;;5071680;28;20051;-64
2023/05/02 09:48:52;;;;;;;2.25;0.60;;;11.10;99.90;;;;;;5072668;28;20033;-64
2023/05/02 09:51:19;;;;;;;0.52;0.47;;;11.10;99.90;;;;;;5072945;28;20048;-64
2023/05/02 09:53:45;;;;;;;1.15;0.47;;;11.00;99.90;;;;;;5072916;28;20068;-64
2023/05/02 09:56:11;;;;;;;1.00;0.65;;;12.00;99.90;;;;;;5072914;28;20428;-64
2023/05/02 09:58:36;;;;;;;1.02;0.50;;;11.80;99.90;;;;;;5071518;28;20044;-64
2023/05/02 10:01:02;;;;;;;0.88;0.50;;;11.40;99.90;;;;;;5072851;28;20083;-64
2023/05/02 10:03:28;;;;;;;0.88;0.52;;;11.40;99.90;;;;;;5075204;28;20567;-64
2023/05/02 10:05:55;;;;;;;1.10;0.50;;;11.30;99.90;;;;;;5076918;28;20036;-64
2023/05/02 10:08:24;;;;;;;1.80;0.70;;;11.20;99.90;;;;;;5076892;28;20040;-64
2023/05/02 10:10:55;;;;;;;1.15;0.60;;;11.30;99.90;;;;;;5075314;28;20090;-64
2023/05/02 10:13:23;;;;;;;1.00;0.70;;;11.30;99.90;;;;;;5076580;28;20033;-65
2023/05/02 10:15:59;;;;;;;0.40;0.40;;;11.40;99.90;;;;;;5076581;28;20048;-65
2023/05/02 10:18:41;;;;;;;1.55;0.63;;;11.00;99.90;;;;;;5076665;28;20166;-65
2023/05/02 10:21:10;;;;;;;1.42;0.63;;;11.20;99.90;;;;;;5075092;28;20438;-65
2023/05/02 10:23:40;;;;;;;1.23;0.57;;;10.90;99.90;;;;;;5076272;28;20076;-65
2023/05/02 10:26:06;;;;;;;0.90;0.40;;;10.90;99.90;;;;;;5058619;28;20445;-67
2023/05/02 10:28:32;;;;;;;2.30;0.60;;;11.00;99.90;;;;;;5076526;28;20071;-65
2023/05/02 10:31:01;;;;;;;2.72;0.57;;;10.80;99.90;;;;;;5075196;28;20036;-66
2023/05/02 10:33:27;;;;;;;1.30;0.60;;;10.80;99.90;;;;;;5058546;28;20048;-65
2023/05/02 10:35:53;;;;;;;1.20;0.57;;;10.90;99.90;;;;;;5075193;28;20589;-66
2023/05/02 10:38:21;;;;;;;1.55;0.65;;;10.90;99.90;;;;;;5076203;28;20115;-64
2023/05/02 10:41:08;;;;;;;0.63;0.40;;;10.90;99.90;;;;;;5076294;28;20500;-68
2023/05/02 10:43:36;;;;;;;0.60;0.47;;;11.30;99.90;;;;;;5076283;28;20040;-69
2023/05/02 10:46:02;;;;;;;3.42;0.55;;;11.40;99.90;;;;;;5074827;28;20119;-66
2023/05/02 10:48:28;;;;;;;1.10;0.43;;;11.50;99.90;;;;;;5076056;28;20032;-65
2023/05/02 10:50:56;;;;;;;3.30;0.70;;;11.70;99.90;;;;;;5076019;28;20040;-65
2023/05/02 10:53:30;;;;;;;1.85;0.60;;;11.90;99.90;;;;;;5075707;28;20040;-65
2023/05/02 10:56:20;;;;;;;0.65;0.43;;;11.60;99.90;;;;;;5075693;28;20044;-66
2023/05/02 10:58:50;;;;;;;1.67;0.63;;;11.50;99.90;;;;;;5075877;28;20067;-66
2023/05/02 11:01:28;;;;;;;1.00;0.53;;;11.40;99.90;;;;;;5075832;28;20051;-66
2023/05/02 11:04:07;;;;;;;1.92;0.50;;;11.20;99.90;;;;;;5075804;28;20416;-68
2023/05/02 11:06:58;;;;;;;2.08;0.50;;;11.80;99.90;;;;;;5075784;28;20041;-66
2023/05/02 11:09:23;;;;;;;0.85;0.40;;;11.10;99.90;;;;;;5075417;28;20040;-66
2023/05/02 11:11:55;;;;;;;2.55;0.70;;;11.00;99.90;;;;;;5075694;28;20055;-65
2023/05/02 11:14:28;;;;;;;3.25;0.60;;;11.00;99.90;;;;;;5074403;28;20085;-65
2023/05/02 11:16:56;;;;;;;0.93;0.43;;;11.10;99.90;;;;;;5075226;28;20157;-64
2023/05/02 11:19:22;;;;;;;0.50;0.40;;;11.30;99.90;;;;;;5075454;28;20047;-65
2023/05/02 11:21:49;;;;;;;1.67;0.55;;;11.40;99.90;;;;;;5075237;28;20500;-62
2023/05/02 11:24:38;;;;;;;0.57;0.55;;;11.40;99.90;;;;;;5075466;28;20409;-63
2023/05/02 11:27:29;;;;;;;3.67;0.70;;;11.50;99.90;;;;;;5075425;28;20064;-63
2023/05/02 11:30:08;;;;;;;1.15;0.50;;;11.60;99.90;;;;;;5075398;28;20484;-63
2023/05/02 11:32:43;;;;;;;1.90;0.75;;;11.60;99.90;;;;;;5075276;28;20040;-63
2023/05/02 11:35:25;;;;;;;1.15;0.57;;;11.50;99.90;;;;;;5074958;28;20047;-63
2023/05/02 11:38:02;;;;;;;0.45;0.30;;;11.70;99.90;;;;;;5075181;28;20447;-63
2023/05/02 11:40:28;;;;;;;2.20;0.55;;;11.80;99.90;;;;;;5073715;28;20037;-64
2023/05/02 11:42:55;;;;;;;1.10;0.50;;;11.90;99.90;;;;;;5074906;28;20032;-65
2023/05/02 11:45:22;;;;;;;0.85;0.40;;;11.80;99.90;;;;;;5074884;28;20145;-63
2023/05/02 11:47:50;;;;;;;0.88;0.60;;;11.50;99.90;;;;;;5074875;28;20116;-64
2023/05/02 11:50:16;;;;;;;1.77;0.40;;;11.60;99.90;;;;;;5074810;28;20076;-63
2023/05/02 11:52:44;;;;;;;0.88;0.55;;;11.40;99.90;;;;;;5074857;28;20036;-63
2023/05/02 11:55:11;;;;;;;0.50;0.47;;;11.40;99.90;;;;;;5074811;28;20433;-63
2023/05/02 11:57:38;;;;;;;1.60;0.50;;;11.40;99.90;;;;;;5073468;28;20080;-63
2023/05/02 12:00:05;;;;;;;2.03;0.50;;;11.40;99.90;;;;;;5074605;28;20048;-64
2023/05/02 12:02:42;;;;;;;2.22;0.50;;;11.40;99.90;;;;;;5074753;28;20048;-63
2023/05/02 12:05:09;;;;;;;1.92;0.60;;;11.40;99.90;;;;;;5073191;28;20044;-63
2023/05/02 12:07:48;;;;;;;0.93;0.60;;;11.50;99.90;;;;;;5074660;28;20036;-64
2023/05/02 12:10:14;;;;;;;0.85;0.60;;;11.70;99.90;;;;;;5074521;28;20102;-64
2023/05/02 12:12:42;;;;;;;1.40;0.70;;;11.60;99.90;;;;;;5073265;28;20040;-64
2023/05/02 12:15:09;;;;;;;0.75;0.50;;;11.90;99.90;;;;;;5074371;28;20041;-64
2023/05/02 12:17:40;;;;;;;2.45;0.60;;;12.20;99.90;;;;;;5073997;28;20531;-64
2023/05/02 12:20:07;;;;;;;2.40;0.57;;;12.30;99.90;;;;;;5074333;28;20037;-64
2023/05/02 12:22:33;;;;;;;3.42;0.95;;;12.40;99.90;;;;;;5074491;28;20086;-64
2023/05/02 12:24:59;;;;;;;0.55;0.52;;;12.30;99.90;;;;;;5072721;28;20033;-64
2023/05/02 12:27:26;;;;;;;0.47;0.43;;;12.30;99.90;;;;;;5074250;28;20040;-64
2023/05/02 12:29:52;;;;;;;2.15;0.68;;;12.10;99.90;;;;;;5074144;28;20040;-64
2023/05/02 12:32:28;;;;;;;1.15;0.68;;;11.90;99.90;;;;;;5073951;28;20040;-63
2023/05/02 12:34:55;;;;;;;0.50;0.50;;;13.20;99.90;;;;;;5073943;28;20051;-64
2023/05/02 12:37:24;;;;;;;0.88;0.50;;;11.80;99.90;;;;;;5073953;28;20045;-64
2023/05/02 12:39:51;;;;;;;1.73;0.47;;;11.30;99.90;;;;;;5073905;28;20040;-64
2023/05/02 12:42:19;;;;;;;2.63;1.08;;;11.40;99.90;;;;;;5073544;28;20036;-64
2023/05/02 12:44:46;;;;;;;0.82;0.60;;;12.20;99.90;;;;;;5073832;28;20032;-64
2023/05/02 12:47:15;;;;;;;1.88;0.77;;;11.70;99.90;;;;;;5073723;28;20056;-66
2023/05/02 12:50:07;;;;;;;0.45;0.40;;;11.80;99.90;;;;;;5073641;28;20037;-64
2023/05/02 12:52:56;;;;;;;0.95;0.30;;;12.00;99.90;;;;;;5070461;28;20048;-64
2023/05/02 12:55:30;;;;;;;0.65;0.28;;;12.00;99.90;;;;;;5073595;28;20118;-64
2023/05/02 12:58:03;;;;;;;1.30;0.50;;;12.00;99.90;;;;;;5073469;28;20062;-64
2023/05/02 13:00:35;;;;;;;2.30;0.50;;;12.00;99.90;;;;;;5073491;28;20476;-64